• Join FlightAware (Why Join?)
  • Login
  • US Flag 
12:03AM EST


 

Airport Tracker/Info


-or-


 

Live Flight TrackerFlight Track Log ✈ JZA8688 ✈ 16-Jun-2014 ✈ CYUL - CYBG

Flight Track Log - Related Links

Times and Time Zones

All times are in EDT time to prevent confusion due to time zone crossing. See the JZA8688 flight status page for this flight to view local times or setup timezone preferences in your user account.

Time Position Orientation Groundspeed Altitude Reporting Facility
EDT Latitude Longitude Course Direction KTS MPH feet Rate Location/Type
08:35PM 45.7760 -73.4626 32° Northeast  Level Estimated
08:36PM 45.8376 -73.4065 32° Northeast  Level Estimated
08:37PM 45.8990 -73.3502 32° Northeast  Level Estimated
08:38PM 45.9605 -73.2938 33° Northeast  Level Estimated
08:39PM 46.0219 -73.2373 33° Northeast  Level Estimated
08:40PM 46.0833 -73.1807 33° Northeast  Level Estimated
08:41PM 46.1447 -73.1239 33° Northeast  Level Estimated
08:42PM 46.2061 -73.0670 33° Northeast  Level Estimated
08:43PM 46.2674 -73.0100 33° Northeast  Level Estimated
08:44PM 46.3287 -72.9529 33° Northeast  Level Estimated
08:45PM 46.3899 -72.8956 33° Northeast  Level Estimated
08:46PM 46.4512 -72.8382 33° Northeast  Level Estimated
08:47PM 46.5124 -72.7807 33° Northeast  Level Estimated
08:48PM 46.5735 -72.7231 33° Northeast  Level Estimated
08:49PM 46.6347 -72.6653 33° Northeast  Level Estimated
08:50PM 46.6958 -72.6074 33° Northeast  Level Estimated
08:51PM 46.7569 -72.5493 33° Northeast  Level Estimated
08:52PM 46.8180 -72.4911 33° Northeast  Level Estimated
08:53PM 46.8790 -72.4328 33° Northeast  Level Estimated
08:54PM 46.9400 -72.3744 33° Northeast  Level Estimated
08:55PM 47.0009 -72.3158 33° Northeast  Level Estimated
08:56PM 47.0619 -72.2571 33° Northeast  Level Estimated
08:57PM 47.1228 -72.1983 33° Northeast  Level Estimated
08:58PM 47.1837 -72.1393 33° Northeast  Level Estimated
08:59PM 47.2445 -72.0802 33° Northeast  Level Estimated
09:00PM 47.3054 -72.0209 33° Northeast  Level Estimated
09:01PM 47.3661 -71.9615 33° Northeast  Level Estimated
09:02PM 47.4269 -71.9020 34° Northeast  Level Estimated
09:03PM 47.4876 -71.8424 34° Northeast  Level Estimated
09:04PM 47.5483 -71.7826 34° Northeast  Level Estimated
09:05PM 47.6090 -71.7226 34° Northeast  Level Estimated
09:06PM 47.6696 -71.6626 34° Northeast  Level Estimated
09:07PM 47.7302 -71.6023 34° Northeast  Level Estimated
09:08PM 47.7908 -71.5420 34° Northeast  Level Estimated
09:09PM 47.8513 -71.4815 34° Northeast  Level Estimated
09:10PM 47.9118 -71.4209 34° Northeast  Level Estimated
09:11PM 47.9723 -71.3601 34° Northeast  Level Estimated
09:12PM 48.0327 -71.2991 34° Northeast  Level Estimated
09:13PM 48.0932 -71.2381 34° Northeast  Level Estimated
09:14PM 48.1576 -71.1727 34° Northeast  Level Estimated
09:15PM 48.2221 -71.1071 34° Northeast  Level Estimated
09:16PM 48.2865 -71.0414 34° Northeast  Level Estimated
09:17PM 48.3306 -70.9964 34° Northeast  Level Estimated
09:18PM 48.3306 -70.9964 North  Level Estimated
09:19PM 48.3306 -70.9964 North  Level Estimated
09:20PM 48.3306 -70.9964 North  Level Estimated
09:21PM 48.3306 -70.9964 North  Level Estimated
09:22PM 48.3306 -70.9964 North  Level Estimated
09:23PM 48.3306 -70.9964 North  Level Estimated
09:24PM 48.3306 -70.9964 North  Level Estimated
09:25PM 48.3306 -70.9964 North  Level Estimated
09:26PM 48.3306 -70.9964 North  Level Estimated
09:27PM 48.3306 -70.9964 North  Level Estimated